createdAt,value
2018-01-07T00:01:50.466Z,6.07
2018-01-07T00:04:25.122Z,5.45
2018-01-07T00:06:59.852Z,2.72
2018-01-07T00:09:35.719Z,3.03
2018-01-07T00:12:11.095Z,5.37
2018-01-07T00:14:47.978Z,1.15
2018-01-07T00:17:22.606Z,4.70
2018-01-07T00:19:57.952Z,2.25
2018-01-07T00:22:32.460Z,3.37
2018-01-07T00:25:08.371Z,2.92
2018-01-07T00:27:42.902Z,1.17
2018-01-07T00:30:18.480Z,1.05
2018-01-07T00:32:53.897Z,0.98
2018-01-07T00:35:28.619Z,4.50
2018-01-07T00:38:03.179Z,2.15
2018-01-07T00:40:38.048Z,4.12
2018-01-07T00:43:12.524Z,3.87
2018-01-07T00:45:46.856Z,0.82
2018-01-07T00:48:23.194Z,1.00
2018-01-07T00:50:57.706Z,1.85
2018-01-07T00:53:32.082Z,0.80
2018-01-07T00:56:06.572Z,1.42
2018-01-07T00:58:41.043Z,1.67
2018-01-07T01:01:16.426Z,0.95
2018-01-07T01:03:51.763Z,1.58
2018-01-07T01:06:26.215Z,4.10
2018-01-07T01:09:00.813Z,1.08
2018-01-07T01:11:36.122Z,3.17
2018-01-07T01:14:10.500Z,6.82
2018-01-07T01:16:45.017Z,1.75
2018-01-07T01:19:19.434Z,1.42
2018-01-07T01:21:54.004Z,1.85
2018-01-07T01:24:28.380Z,0.55
2018-01-07T01:27:02.870Z,1.12
2018-01-07T01:29:37.203Z,0.90
2018-01-07T01:32:11.653Z,1.35
2018-01-07T01:34:46.036Z,1.98
2018-01-07T01:37:20.540Z,0.80
2018-01-07T01:39:54.907Z,4.03
2018-01-07T01:42:29.318Z,1.05
2018-01-07T01:45:03.897Z,1.50
2018-01-07T01:47:38.272Z,1.58
2018-01-07T01:50:12.773Z,1.50
2018-01-07T01:52:47.998Z,2.95
2018-01-07T01:55:22.683Z,1.20
2018-01-07T01:57:57.389Z,2.55
2018-01-07T02:00:31.788Z,0.90
2018-01-07T02:03:06.127Z,1.10
2018-01-07T02:05:40.621Z,1.12
2018-01-07T02:08:15.121Z,1.55
2018-01-07T02:10:49.484Z,3.15
2018-01-07T02:13:23.850Z,2.78
2018-01-07T02:15:58.526Z,1.33
2018-01-07T02:18:32.917Z,1.45
2018-01-07T02:21:07.226Z,2.33
2018-01-07T02:23:41.937Z,2.10
2018-01-07T02:26:16.280Z,2.35
2018-01-07T02:28:51.547Z,2.87
2018-01-07T02:31:27.035Z,0.50
2018-01-07T02:34:01.386Z,1.75
2018-01-07T02:36:36.552Z,1.15
2018-01-07T02:39:11.898Z,1.40
2018-01-07T02:41:46.478Z,1.70
2018-01-07T02:44:21.241Z,0.82
2018-01-07T02:46:55.654Z,4.05
2018-01-07T02:49:30.310Z,2.25
2018-01-07T02:52:04.641Z,1.17
2018-01-07T02:54:39.222Z,2.55
2018-01-07T02:57:13.823Z,1.15
2018-01-07T02:59:48.178Z,0.90
2018-01-07T03:02:22.784Z,1.58
2018-01-07T03:04:58.175Z,1.17
2018-01-07T03:07:32.522Z,2.40
2018-01-07T03:10:06.970Z,0.70
2018-01-07T03:12:42.093Z,0.80
2018-01-07T03:15:16.530Z,2.17
2018-01-07T03:17:51.733Z,3.10
2018-01-07T03:20:26.070Z,2.92
2018-01-07T03:23:00.480Z,0.70
2018-01-07T03:25:34.888Z,0.85
2018-01-07T03:28:09.252Z,0.93
2018-01-07T03:30:43.890Z,0.70
2018-01-07T03:33:18.247Z,4.00
2018-01-07T03:35:52.630Z,1.08
2018-01-07T03:38:27.124Z,1.42
2018-01-07T03:41:01.475Z,1.10
2018-01-07T03:43:35.942Z,1.08
2018-01-07T03:46:10.248Z,4.12
2018-01-07T03:48:44.611Z,0.90
2018-01-07T03:51:19.913Z,0.70
2018-01-07T03:53:55.949Z,0.70
2018-01-07T03:56:31.169Z,0.80
2018-01-07T03:59:05.677Z,0.85
2018-01-07T04:01:40.227Z,0.93
2018-01-07T04:04:15.393Z,3.22
2018-01-07T04:06:49.879Z,0.98
2018-01-07T04:09:24.338Z,2.42
2018-01-07T04:11:58.849Z,1.50
2018-01-07T04:14:33.395Z,0.90
2018-01-07T04:17:08.683Z,2.83
2018-01-07T04:19:43.244Z,0.95
2018-01-07T04:22:17.621Z,0.80
2018-01-07T04:24:52.050Z,0.70
2018-01-07T04:27:26.516Z,0.75
2018-01-07T04:30:01.019Z,1.08
2018-01-07T04:32:35.431Z,1.45
2018-01-07T04:35:10.027Z,1.08
2018-01-07T04:37:44.824Z,0.80
2018-01-07T04:40:19.368Z,2.83
2018-01-07T04:42:53.893Z,1.30
2018-01-07T04:45:28.389Z,0.60
2018-01-07T04:48:02.713Z,1.98
2018-01-07T04:50:37.199Z,1.00
2018-01-07T04:53:12.406Z,1.52
2018-01-07T04:55:46.965Z,1.40
2018-01-07T04:58:21.486Z,0.98
2018-01-07T05:00:55.812Z,2.85
2018-01-07T05:03:30.446Z,1.58
2018-01-07T05:06:04.954Z,1.02
2018-01-07T05:08:39.438Z,1.55
2018-01-07T05:11:13.753Z,2.75
2018-01-07T05:13:48.200Z,0.77
2018-01-07T05:16:22.498Z,1.10
2018-01-07T05:18:56.910Z,1.45
2018-01-07T05:21:31.277Z,1.45
2018-01-07T05:24:05.765Z,0.93
2018-01-07T05:26:40.292Z,2.60
2018-01-07T05:29:14.681Z,1.12
2018-01-07T05:31:49.180Z,0.90
2018-01-07T05:34:23.644Z,1.15
2018-01-07T05:36:58.892Z,1.20
2018-01-07T05:39:33.333Z,2.30
2018-01-07T05:42:07.897Z,2.50
2018-01-07T05:44:42.229Z,1.55
2018-01-07T05:47:16.783Z,1.35
2018-01-07T05:49:51.133Z,2.15
2018-01-07T05:52:25.656Z,2.17
2018-01-07T05:55:00.835Z,1.02
2018-01-07T05:57:35.205Z,3.47
2018-01-07T06:00:09.605Z,1.30
2018-01-07T06:02:44.036Z,2.58
2018-01-07T06:05:18.424Z,0.90
2018-01-07T06:07:52.969Z,3.72
2018-01-07T06:10:27.553Z,3.70
2018-01-07T06:13:02.191Z,1.45
2018-01-07T06:15:37.426Z,1.58
2018-01-07T06:18:11.934Z,1.00
2018-01-07T06:20:46.448Z,0.88
2018-01-07T06:23:20.922Z,2.15
2018-01-07T06:25:55.393Z,5.65
2018-01-07T06:28:29.960Z,3.62
2018-01-07T06:31:05.256Z,1.85
2018-01-07T06:33:40.310Z,2.58
2018-01-07T06:36:14.696Z,3.15
2018-01-07T06:38:49.256Z,1.40
2018-01-07T06:41:23.643Z,1.77
2018-01-07T06:43:58.122Z,2.28
2018-01-07T06:46:32.639Z,2.95
2018-01-07T06:49:07.253Z,2.12
2018-01-07T06:51:42.563Z,1.30
2018-01-07T06:54:17.796Z,3.50
2018-01-07T06:56:52.216Z,2.45
2018-01-07T06:59:27.418Z,5.65
2018-01-07T07:02:01.961Z,3.37
2018-01-07T07:04:36.446Z,2.42
2018-01-07T07:07:10.951Z,4.12
2018-01-07T07:09:45.521Z,2.83
2018-01-07T07:12:19.945Z,4.97
2018-01-07T07:14:55.049Z,1.08
2018-01-07T07:17:29.758Z,3.15
2018-01-07T07:20:05.180Z,1.80
2018-01-07T07:22:39.543Z,1.85
2018-01-07T07:25:13.986Z,5.03
2018-01-07T07:27:48.407Z,2.37
2018-01-07T07:30:22.904Z,2.15
2018-01-07T07:32:57.456Z,1.85
2018-01-07T07:35:33.716Z,1.70
2018-01-07T07:38:09.035Z,2.47
2018-01-07T07:40:43.586Z,1.50
2018-01-07T07:43:18.148Z,2.03
2018-01-07T07:45:52.690Z,2.90
2018-01-07T07:48:27.191Z,6.00
2018-01-07T07:51:01.710Z,1.23
2018-01-07T07:53:36.354Z,2.95
2018-01-07T07:56:10.852Z,1.48
2018-01-07T07:58:45.358Z,3.53
2018-01-07T08:01:19.934Z,6.87
2018-01-07T08:03:54.440Z,5.65
2018-01-07T08:06:28.823Z,4.50
2018-01-07T08:09:03.282Z,3.30
2018-01-07T08:11:37.650Z,3.25
2018-01-07T08:14:12.178Z,6.72
2018-01-07T08:16:46.784Z,3.33
2018-01-07T08:19:21.287Z,2.85
2018-01-07T08:21:55.766Z,6.60
2018-01-07T08:24:30.183Z,3.85
2018-01-07T08:27:04.701Z,2.58
2018-01-07T08:29:39.265Z,7.43
2018-01-07T08:32:13.845Z,2.40
2018-01-07T08:34:49.144Z,6.50
2018-01-07T08:37:23.608Z,5.95
2018-01-07T08:39:58.120Z,3.62
2018-01-07T08:42:32.524Z,3.67
2018-01-07T08:45:06.942Z,4.43
2018-01-07T08:47:41.380Z,5.32
2018-01-07T08:50:15.861Z,4.62
2018-01-07T08:52:50.356Z,5.07
2018-01-07T08:55:24.821Z,5.10
2018-01-07T08:58:00.156Z,7.93
2018-01-07T09:00:34.541Z,10.80
2018-01-07T09:03:08.891Z,10.80
2018-01-07T09:05:43.423Z,9.35
2018-01-07T09:08:17.878Z,4.15
2018-01-07T09:10:52.527Z,4.60
2018-01-07T09:13:27.887Z,9.63
2018-01-07T09:16:03.444Z,5.03
2018-01-07T09:18:39.003Z,6.65
2018-01-07T09:21:13.424Z,9.23
2018-01-07T09:23:47.868Z,5.93
2018-01-07T09:26:23.510Z,7.20
2018-01-07T09:28:57.937Z,2.95
2018-01-07T09:31:32.339Z,6.03
2018-01-07T09:34:06.839Z,7.95
2018-01-07T09:36:41.554Z,3.90
2018-01-07T09:39:15.992Z,3.67
2018-01-07T09:41:50.646Z,4.45
2018-01-07T09:44:25.163Z,4.70
2018-01-07T09:46:59.770Z,4.93
2018-01-07T09:49:34.224Z,3.58
2018-01-07T09:52:08.756Z,3.20
2018-01-07T09:54:44.333Z,7.20
2018-01-07T09:57:19.438Z,6.85
2018-01-07T09:59:53.826Z,3.80
2018-01-07T10:02:28.484Z,4.32
2018-01-07T10:05:03.071Z,4.10
2018-01-07T10:07:37.569Z,4.15
2018-01-07T10:10:12.021Z,1.73
2018-01-07T10:12:47.456Z,3.33
2018-01-07T10:15:21.949Z,6.28
2018-01-07T10:17:56.550Z,5.95
2018-01-07T10:20:31.377Z,4.47
2018-01-07T10:23:06.294Z,4.10
2018-01-07T10:25:40.847Z,6.80
2018-01-07T10:28:17.153Z,8.25
2018-01-07T10:30:51.713Z,3.33
2018-01-07T10:33:26.125Z,1.20
2018-01-07T10:36:01.894Z,2.75
2018-01-07T10:38:36.603Z,3.05
2018-01-07T10:41:11.198Z,2.92
2018-01-07T10:43:45.654Z,2.03
2018-01-07T10:46:20.228Z,3.35
2018-01-07T10:48:54.901Z,6.03
2018-01-07T10:51:29.594Z,2.35
2018-01-07T10:54:04.318Z,2.50
2018-01-07T10:56:40.373Z,4.45
2018-01-07T10:59:16.026Z,1.85
2018-01-07T11:01:56.159Z,1.80
2018-01-07T11:04:31.539Z,1.60
2018-01-07T11:07:06.293Z,1.98
2018-01-07T11:09:42.818Z,2.35
2018-01-07T11:12:17.391Z,3.37
2018-01-07T11:14:52.237Z,2.47
2018-01-07T11:17:26.906Z,2.20
2018-01-07T11:20:01.470Z,3.92
2018-01-07T11:22:35.985Z,2.97
2018-01-07T11:25:11.996Z,2.10
2018-01-07T11:27:46.731Z,2.92
2018-01-07T11:30:21.511Z,3.17
2018-01-07T11:32:56.201Z,2.33
2018-01-07T11:35:32.642Z,1.50
2018-01-07T11:38:07.156Z,2.08
2018-01-07T11:40:43.837Z,5.43
2018-01-07T11:43:18.305Z,5.25
2018-01-07T11:45:52.668Z,1.25
2018-01-07T11:48:27.115Z,1.12
2018-01-07T11:51:01.642Z,1.50
2018-01-07T11:53:36.116Z,2.12
2018-01-07T11:56:10.683Z,1.52
2018-01-07T11:58:45.191Z,1.52
2018-01-07T12:01:20.413Z,2.28
2018-01-07T12:03:55.018Z,1.58
2018-01-07T12:06:30.264Z,3.55
2018-01-07T12:09:05.653Z,1.87
2018-01-07T12:11:40.752Z,2.10
2018-01-07T12:14:15.148Z,1.87
2018-01-07T12:16:49.625Z,1.30
2018-01-07T12:19:24.116Z,2.03
2018-01-07T12:21:58.587Z,1.10
2018-01-07T12:24:33.011Z,3.72
2018-01-07T12:27:07.550Z,3.55
2018-01-07T12:29:42.001Z,1.40
2018-01-07T12:32:16.350Z,2.75
2018-01-07T12:34:50.730Z,1.33
2018-01-07T12:37:25.096Z,1.83
2018-01-07T12:39:59.572Z,1.65
2018-01-07T12:42:33.979Z,3.62
2018-01-07T12:45:08.452Z,11.68
2018-01-07T12:47:42.929Z,5.97
2018-01-07T12:50:17.797Z,4.87
2018-01-07T12:52:52.349Z,2.65
2018-01-07T12:55:26.922Z,2.70
2018-01-07T12:58:01.443Z,1.27
2018-01-07T13:00:36.016Z,1.27
2018-01-07T13:03:11.135Z,1.92
2018-01-07T13:05:45.558Z,1.55
2018-01-07T13:08:20.142Z,3.42
2018-01-07T13:10:54.653Z,1.00
2018-01-07T13:13:29.868Z,1.33
2018-01-07T13:16:08.390Z,1.23
2018-01-07T13:18:44.068Z,1.70
2018-01-07T13:21:20.911Z,3.90
2018-01-07T13:23:55.426Z,3.03
2018-01-07T13:26:30.955Z,1.23
2018-01-07T13:29:06.281Z,1.12
2018-01-07T13:31:40.887Z,2.97
2018-01-07T13:34:15.261Z,2.37
2018-01-07T13:36:50.189Z,2.28
2018-01-07T13:39:24.485Z,1.95
2018-01-07T13:41:59.606Z,2.42
2018-01-07T13:44:34.081Z,3.35
2018-01-07T13:47:08.498Z,2.15
2018-01-07T13:49:42.937Z,3.25
2018-01-07T13:52:17.341Z,3.03
2018-01-07T13:54:54.583Z,2.00
2018-01-07T13:57:29.839Z,2.72
2018-01-07T14:00:04.149Z,2.62
2018-01-07T14:02:38.494Z,3.92
2018-01-07T14:05:12.990Z,7.60
2018-01-07T14:07:47.371Z,13.25
2018-01-07T14:10:21.744Z,6.30
2018-01-07T14:12:56.086Z,6.15
2018-01-07T14:15:30.454Z,9.38
2018-01-07T14:18:05.091Z,7.40
2018-01-07T14:20:39.484Z,3.35
2018-01-07T14:23:13.800Z,5.60
2018-01-07T14:25:48.158Z,5.20
2018-01-07T14:28:22.556Z,4.87
2018-01-07T14:30:57.021Z,4.93
2018-01-07T14:33:31.491Z,4.55
2018-01-07T14:36:05.984Z,10.18
2018-01-07T14:38:40.477Z,7.25
2018-01-07T14:41:14.846Z,4.12
2018-01-07T14:43:49.310Z,3.53
2018-01-07T14:46:23.633Z,4.28
2018-01-07T14:48:58.028Z,3.33
2018-01-07T14:51:32.426Z,6.53
2018-01-07T14:54:06.805Z,8.77
2018-01-07T14:56:41.277Z,6.35
2018-01-07T14:59:15.658Z,8.15
2018-01-07T15:01:50.027Z,6.90
2018-01-07T15:04:25.159Z,14.52
2018-01-07T15:06:59.528Z,7.18
2018-01-07T15:09:33.871Z,12.25
2018-01-07T15:12:08.225Z,9.55
2018-01-07T15:14:42.733Z,8.02
2018-01-07T15:17:17.073Z,7.85
2018-01-07T15:19:55.014Z,11.48
2018-01-07T15:22:30.750Z,8.30
2018-01-07T15:25:05.235Z,9.95
2018-01-07T15:27:39.778Z,8.75
2018-01-07T15:30:14.381Z,15.02
2018-01-07T15:32:48.721Z,14.30
2018-01-07T15:35:23.194Z,13.75
2018-01-07T15:37:57.648Z,7.72
2018-01-07T15:40:32.122Z,9.52
2018-01-07T15:43:06.528Z,8.70
2018-01-07T15:45:40.979Z,9.93
2018-01-07T15:48:15.492Z,7.87
2018-01-07T15:50:50.071Z,12.37
2018-01-07T15:53:24.534Z,11.35
2018-01-07T15:55:59.752Z,9.05
2018-01-07T15:58:34.922Z,11.32
2018-01-07T16:01:09.258Z,13.50
2018-01-07T16:03:44.539Z,18.15
2018-01-07T16:06:18.956Z,11.35
2018-01-07T16:08:53.357Z,26.48
2018-01-07T16:11:27.758Z,24.48
2018-01-07T16:14:02.222Z,20.30
2018-01-07T16:16:36.595Z,12.45
2018-01-07T16:19:11.205Z,11.68
2018-01-07T16:21:45.793Z,18.67
2018-01-07T16:24:20.289Z,15.45
2018-01-07T16:26:56.512Z,13.95
2018-01-07T16:29:30.967Z,15.63
2018-01-07T16:32:05.409Z,42.05
2018-01-07T16:34:40.649Z,18.45
2018-01-07T16:37:15.855Z,21.27
2018-01-07T16:39:50.499Z,20.73
2018-01-07T16:42:24.868Z,13.90
2018-01-07T16:44:59.368Z,10.45
2018-01-07T16:47:34.687Z,14.25
2018-01-07T16:50:09.170Z,13.82
2018-01-07T16:52:43.545Z,12.35
2018-01-07T16:55:18.071Z,15.35
2018-01-07T16:57:52.580Z,13.25
2018-01-07T17:00:30.493Z,28.40
2018-01-07T17:03:07.379Z,20.02
2018-01-07T17:05:48.394Z,13.48
2018-01-07T17:08:26.315Z,13.77
2018-01-07T17:11:04.878Z,9.43
2018-01-07T17:13:40.595Z,9.57
2018-01-07T17:16:15.129Z,7.85
2018-01-07T17:18:50.265Z,6.25
2018-01-07T17:21:25.508Z,8.70
2018-01-07T17:23:59.971Z,10.05
2018-01-07T17:26:34.552Z,15.30
2018-01-07T17:29:09.171Z,10.80
2018-01-07T17:31:43.719Z,16.98
2018-01-07T17:34:18.328Z,26.10
2018-01-07T17:36:52.652Z,10.98
2018-01-07T17:39:27.126Z,8.38
2018-01-07T17:42:01.607Z,13.68
2018-01-07T17:44:36.049Z,14.18
2018-01-07T17:47:10.687Z,11.12
2018-01-07T17:49:45.242Z,11.55
2018-01-07T17:52:19.743Z,10.45
2018-01-07T17:54:54.955Z,9.15
2018-01-07T17:57:29.552Z,6.20
2018-01-07T18:00:04.832Z,11.48
2018-01-07T18:02:39.193Z,12.45
2018-01-07T18:05:13.603Z,10.27
2018-01-07T18:07:48.059Z,13.38
2018-01-07T18:10:22.528Z,10.80
2018-01-07T18:12:57.086Z,8.48
2018-01-07T18:15:31.586Z,8.65
2018-01-07T18:18:06.051Z,9.02
2018-01-07T18:20:40.603Z,10.00
2018-01-07T18:23:15.087Z,11.15
2018-01-07T18:25:50.368Z,9.82
2018-01-07T18:28:25.749Z,10.38
2018-01-07T18:31:00.301Z,14.23
2018-01-07T18:33:34.720Z,14.70
2018-01-07T18:36:09.139Z,15.15
2018-01-07T18:38:43.674Z,18.37
2018-01-07T18:41:18.198Z,10.77
2018-01-07T18:43:52.691Z,11.15
2018-01-07T18:46:27.201Z,10.63
2018-01-07T18:49:01.667Z,20.80
2018-01-07T18:51:36.219Z,15.60
2018-01-07T18:54:10.690Z,13.52
2018-01-07T18:56:45.839Z,15.52
2018-01-07T18:59:20.333Z,18.62
2018-01-07T19:01:55.238Z,22.77
2018-01-07T19:04:29.694Z,31.20
2018-01-07T19:07:04.095Z,44.13
2018-01-07T19:09:38.661Z,41.25
2018-01-07T19:12:13.292Z,31.75
2018-01-07T19:14:47.840Z,36.70
2018-01-07T19:17:22.233Z,14.50
2018-01-07T19:19:56.759Z,10.68
2018-01-07T19:22:31.967Z,21.65
2018-01-07T19:25:06.285Z,14.70
2018-01-07T19:27:40.756Z,9.10
2018-01-07T19:30:15.321Z,11.10
2018-01-07T19:32:49.865Z,19.25
2018-01-07T19:35:24.431Z,11.95
2018-01-07T19:37:58.880Z,13.62
2018-01-07T19:40:33.279Z,12.63
2018-01-07T19:43:07.860Z,9.73
2018-01-07T19:45:42.489Z,9.65
2018-01-07T19:48:16.977Z,17.62
2018-01-07T19:50:51.561Z,10.10
2018-01-07T19:53:26.094Z,9.23
2018-01-07T19:56:00.600Z,11.43
2018-01-07T19:58:35.135Z,11.55
2018-01-07T20:01:09.492Z,14.13
2018-01-07T20:03:44.914Z,13.60
2018-01-07T20:06:19.388Z,7.37
2018-01-07T20:08:54.731Z,8.88
2018-01-07T20:11:29.191Z,6.40
2018-01-07T20:14:03.763Z,10.75
2018-01-07T20:16:38.181Z,9.25
2018-01-07T20:19:12.750Z,8.50
2018-01-07T20:21:47.130Z,8.77
2018-01-07T20:24:21.672Z,7.53
2018-01-07T20:26:56.083Z,9.55
2018-01-07T20:29:30.667Z,29.77
2018-01-07T20:32:05.111Z,21.80
2018-01-07T20:34:39.596Z,9.63
2018-01-07T20:37:14.114Z,14.13
2018-01-07T20:39:48.593Z,9.85
2018-01-07T20:42:23.167Z,11.10
2018-01-07T20:44:58.444Z,12.30
2018-01-07T20:47:32.940Z,16.35
2018-01-07T20:50:08.193Z,19.73
2018-01-07T20:52:42.675Z,11.60
2018-01-07T20:55:17.156Z,15.50
2018-01-07T20:57:52.452Z,15.40
2018-01-07T21:00:27.012Z,7.90
2018-01-07T21:03:01.540Z,6.75
2018-01-07T21:05:36.068Z,6.40
2018-01-07T21:08:11.328Z,6.03
2018-01-07T21:10:46.591Z,6.90
2018-01-07T21:13:20.969Z,7.22
2018-01-07T21:15:56.127Z,6.05
2018-01-07T21:18:30.483Z,9.68
2018-01-07T21:21:05.697Z,8.75
2018-01-07T21:23:40.176Z,8.05
2018-01-07T21:26:14.676Z,7.32
2018-01-07T21:28:49.267Z,11.65
2018-01-07T21:31:23.728Z,6.53
2018-01-07T21:33:58.264Z,6.80
2018-01-07T21:36:32.737Z,11.52
2018-01-07T21:39:07.258Z,7.37
2018-01-07T21:41:41.762Z,10.57
2018-01-07T21:44:16.276Z,10.07
2018-01-07T21:46:50.730Z,8.15
2018-01-07T21:49:25.987Z,7.18
2018-01-07T21:52:00.471Z,10.43
2018-01-07T21:54:34.985Z,8.85
2018-01-07T21:57:09.507Z,8.35
2018-01-07T21:59:55.923Z,9.50
2018-01-07T22:02:42.402Z,10.05
2018-01-07T22:05:17.088Z,12.30
2018-01-07T22:07:51.696Z,15.70
2018-01-07T22:10:26.015Z,11.00
2018-01-07T22:13:00.560Z,9.25
2018-01-07T22:15:35.791Z,46.58
2018-01-07T22:18:10.177Z,77.82
2018-01-07T22:20:44.626Z,49.50
2018-01-07T22:23:19.207Z,39.58
2018-01-07T22:25:53.781Z,32.03
2018-01-07T22:28:28.145Z,15.57
2018-01-07T22:31:02.632Z,15.00
2018-01-07T22:33:37.102Z,15.75
2018-01-07T22:36:11.633Z,6.93
2018-01-07T22:38:46.123Z,7.22
2018-01-07T22:41:21.480Z,7.87
2018-01-07T22:43:55.904Z,11.70
2018-01-07T22:46:30.430Z,5.35
2018-01-07T22:49:04.926Z,18.58
2018-01-07T22:51:39.459Z,22.23
2018-01-07T22:54:13.933Z,7.70
2018-01-07T22:56:48.417Z,16.90
2018-01-07T22:59:25.247Z,4.85
2018-01-07T23:01:59.763Z,6.50
2018-01-07T23:04:34.111Z,5.15
2018-01-07T23:07:08.566Z,7.40
2018-01-07T23:09:43.047Z,12.10
2018-01-07T23:12:17.450Z,4.05
2018-01-07T23:14:51.763Z,6.47
2018-01-07T23:17:26.269Z,6.03
2018-01-07T23:20:00.701Z,7.55
2018-01-07T23:22:35.068Z,5.93
2018-01-07T23:25:09.608Z,5.70
2018-01-07T23:27:43.963Z,5.37
2018-01-07T23:30:18.461Z,4.80
2018-01-07T23:32:52.970Z,9.55
2018-01-07T23:35:27.487Z,4.22
2018-01-07T23:38:02.016Z,7.65
2018-01-07T23:40:36.464Z,6.20
2018-01-07T23:43:10.783Z,6.12
2018-01-07T23:45:45.334Z,5.47
2018-01-07T23:48:19.871Z,4.55
2018-01-07T23:50:54.421Z,8.18
2018-01-07T23:53:28.867Z,25.77
2018-01-07T23:56:03.426Z,11.98
2018-01-07T23:58:38.000Z,7.80
